createdAt,value
2022-10-19T00:02:06.955Z,97206.56
2022-10-19T00:04:33.496Z,97202.78
2022-10-19T00:06:59.981Z,97203.22
2022-10-19T00:09:26.500Z,97198.25
2022-10-19T00:11:52.985Z,97201.38
2022-10-19T00:14:23.152Z,97201.97
2022-10-19T00:16:51.594Z,97201.63
2022-10-19T00:19:21.905Z,97194.00
2022-10-19T00:24:20.252Z,97183.19
2022-10-19T00:26:46.784Z,97195.91
2022-10-19T00:29:14.609Z,97182.69
2022-10-19T00:31:41.429Z,97198.25
2022-10-19T00:34:07.983Z,97198.13
2022-10-19T00:36:37.781Z,97198.00
2022-10-19T00:39:06.175Z,97200.19
2022-10-19T00:41:34.735Z,97198.84
2022-10-19T00:44:03.002Z,97195.25
2022-10-19T00:46:32.634Z,97185.47
2022-10-19T00:49:10.833Z,97184.34
2022-10-19T00:51:40.983Z,97203.53
2022-10-19T00:54:08.877Z,97196.66
2022-10-19T00:56:39.754Z,97188.72
2022-10-19T00:59:07.977Z,97198.75
2022-10-19T01:01:34.983Z,97184.81
2022-10-19T01:04:03.013Z,97194.31
2022-10-19T01:06:30.105Z,97190.03
2022-10-19T01:08:56.636Z,97178.03
2022-10-19T01:11:34.932Z,97183.75
2022-10-19T01:14:26.720Z,97180.00
2022-10-19T01:17:22.288Z,97183.88
2022-10-19T01:20:07.794Z,97182.41
2022-10-19T01:22:40.119Z,97181.41
2022-10-19T01:25:21.787Z,97183.94
2022-10-19T01:27:51.247Z,97187.72
2022-10-19T01:30:31.815Z,97178.03
2022-10-19T01:33:04.337Z,97181.78
2022-10-19T01:35:42.474Z,97190.75
2022-10-19T01:38:24.732Z,97189.19
2022-10-19T01:41:01.644Z,97187.06
2022-10-19T01:43:40.652Z,97185.34
2022-10-19T01:46:14.490Z,97184.09
2022-10-19T01:48:47.325Z,97177.13
2022-10-19T01:51:21.673Z,97182.47
2022-10-19T01:53:52.356Z,97173.84
2022-10-19T01:56:22.221Z,97181.75
2022-10-19T01:58:51.474Z,97175.41
2022-10-19T02:01:21.501Z,97177.97
2022-10-19T02:03:48.861Z,97175.34
2022-10-19T02:06:15.538Z,97163.25
2022-10-19T02:08:48.676Z,97177.03
2022-10-19T02:11:17.060Z,97170.94
2022-10-19T02:13:45.076Z,97172.41
2022-10-19T02:16:27.833Z,97163.31
2022-10-19T02:18:55.836Z,97166.88
2022-10-19T02:21:22.530Z,97163.06
2022-10-19T02:23:51.801Z,97166.53
2022-10-19T02:26:21.355Z,97166.22
2022-10-19T02:28:49.607Z,97162.88
2022-10-19T02:31:16.567Z,97156.72
2022-10-19T02:33:43.252Z,97153.81
2022-10-19T02:36:09.795Z,97155.69
2022-10-19T02:38:36.501Z,97150.91
2022-10-19T02:41:18.114Z,97143.41
2022-10-19T02:43:49.351Z,97148.47
2022-10-19T02:46:28.801Z,97145.34
2022-10-19T02:48:57.111Z,97140.41
2022-10-19T02:51:27.648Z,97137.41
2022-10-19T02:53:54.136Z,97147.78
2022-10-19T02:56:21.042Z,97135.97
2022-10-19T02:58:47.456Z,97147.53
2022-10-19T03:01:14.653Z,97146.41
2022-10-19T03:03:41.190Z,97144.88
2022-10-19T03:06:07.644Z,97135.38
2022-10-19T03:08:34.093Z,97143.31
2022-10-19T03:11:00.674Z,97139.59
2022-10-19T03:13:27.378Z,97129.28
2022-10-19T03:15:53.846Z,97118.19
2022-10-19T03:18:20.281Z,97139.31
2022-10-19T03:20:46.739Z,97141.19
2022-10-19T03:23:13.174Z,97132.13
2022-10-19T03:25:39.582Z,97129.38
2022-10-19T03:28:06.057Z,97134.44
2022-10-19T03:30:32.474Z,97133.31
2022-10-19T03:32:58.936Z,97134.09
2022-10-19T03:35:25.379Z,97128.00
2022-10-19T03:37:51.807Z,97137.09
2022-10-19T03:40:18.270Z,97130.56
2022-10-19T03:42:44.792Z,97128.72
2022-10-19T03:45:11.326Z,97121.34
2022-10-19T03:47:37.751Z,97127.84
2022-10-19T03:50:05.972Z,97129.28
2022-10-19T03:52:32.407Z,97134.75
2022-10-19T03:54:58.835Z,97132.81
2022-10-19T03:57:25.287Z,97129.28
2022-10-19T03:59:51.697Z,97128.78
2022-10-19T04:02:18.119Z,97129.38
2022-10-19T04:04:44.520Z,97119.44
2022-10-19T04:07:11.060Z,97120.56
2022-10-19T04:09:37.501Z,97128.75
2022-10-19T04:12:04.125Z,97125.56
2022-10-19T04:14:33.266Z,97117.88
2022-10-19T04:17:05.522Z,97119.66
2022-10-19T04:19:31.969Z,97119.91
2022-10-19T04:21:59.149Z,97115.38
2022-10-19T04:24:25.558Z,97115.88
2022-10-19T04:26:54.299Z,97124.34
2022-10-19T04:29:27.890Z,97126.00
2022-10-19T04:31:56.477Z,97124.13
2022-10-19T04:34:23.120Z,97121.16
2022-10-19T04:36:49.612Z,97122.44
2022-10-19T04:39:16.182Z,97108.06
2022-10-19T04:41:42.644Z,97120.47
2022-10-19T04:44:09.706Z,97111.75
2022-10-19T04:46:37.319Z,97124.41
2022-10-19T04:49:05.620Z,97113.03
2022-10-19T04:51:32.119Z,97119.28
2022-10-19T04:53:59.777Z,97106.97
2022-10-19T04:56:27.633Z,97118.44
2022-10-19T04:58:58.904Z,97113.38
2022-10-19T05:01:26.714Z,97112.00
2022-10-19T05:06:26.790Z,97112.88
2022-10-19T05:08:53.599Z,97109.09
2022-10-19T05:11:20.791Z,97102.28
2022-10-19T05:13:48.174Z,97103.38
2022-10-19T05:16:18.251Z,97104.91
2022-10-19T05:18:49.319Z,97098.84
2022-10-19T05:21:16.567Z,97109.09
2022-10-19T05:23:43.342Z,97091.31
2022-10-19T05:26:12.586Z,97093.97
2022-10-19T05:28:39.194Z,97103.38
2022-10-19T05:31:25.741Z,97108.69
2022-10-19T05:33:52.234Z,97098.75
2022-10-19T05:36:27.556Z,97106.81
2022-10-19T05:38:56.521Z,97104.50
2022-10-19T05:41:24.649Z,97105.28
2022-10-19T05:43:56.560Z,97107.56
2022-10-19T05:46:23.460Z,97110.56
2022-10-19T05:48:49.902Z,97111.34
2022-10-19T05:51:20.098Z,97110.91
2022-10-19T05:53:46.902Z,97115.78
2022-10-19T05:56:16.748Z,97116.19
2022-10-19T05:58:43.458Z,97118.53
2022-10-19T06:01:10.769Z,97121.59
2022-10-19T06:03:37.218Z,97116.13
2022-10-19T06:06:04.928Z,97125.72
2022-10-19T06:08:31.499Z,97119.72
2022-10-19T06:11:18.903Z,97126.13
2022-10-19T06:13:47.429Z,97119.38
2022-10-19T06:16:15.543Z,97126.56
2022-10-19T06:18:42.829Z,97121.50
2022-10-19T06:21:16.818Z,97133.84
2022-10-19T06:23:43.365Z,97135.03
2022-10-19T06:26:12.379Z,97127.75
2022-10-19T06:28:40.692Z,97135.03
2022-10-19T06:31:09.336Z,97138.53
2022-10-19T06:33:36.625Z,97134.78
2022-10-19T06:36:15.703Z,97139.38
2022-10-19T06:38:42.784Z,97141.28
2022-10-19T06:41:10.555Z,97143.84
2022-10-19T06:43:37.144Z,97140.84
2022-10-19T06:46:05.552Z,97137.69
2022-10-19T06:48:32.082Z,97145.31
2022-10-19T06:51:00.528Z,97156.41
2022-10-19T06:53:29.089Z,97160.28
2022-10-19T06:55:59.634Z,97161.97
2022-10-19T06:58:26.353Z,97173.63
2022-10-19T07:00:57.529Z,97169.31
2022-10-19T07:03:25.233Z,97161.91
2022-10-19T07:05:54.819Z,97165.41
2022-10-19T07:08:21.513Z,97160.78
2022-10-19T07:10:56.742Z,97164.50
2022-10-19T07:13:24.366Z,97163.38
2022-10-19T07:15:57.211Z,97156.69
2022-10-19T07:18:23.723Z,97160.63
2022-10-19T07:20:58.095Z,97168.41
2022-10-19T07:23:26.953Z,97172.31
2022-10-19T07:25:59.896Z,97173.94
2022-10-19T07:28:26.654Z,97155.56
2022-10-19T07:30:53.106Z,97181.22
2022-10-19T07:33:19.570Z,97175.22
2022-10-19T07:35:46.016Z,97178.34
2022-10-19T07:38:12.464Z,97176.84
2022-10-19T07:40:40.037Z,97177.22
2022-10-19T07:43:08.893Z,97180.63
2022-10-19T07:45:35.391Z,97185.19
2022-10-19T07:48:01.835Z,97190.91
2022-10-19T07:50:28.387Z,97180.28
2022-10-19T07:52:55.374Z,97182.59
2022-10-19T07:55:21.902Z,97184.16
2022-10-19T07:57:49.886Z,97188.41
2022-10-19T08:00:17.010Z,97183.53
2022-10-19T08:02:59.691Z,97192.09
2022-10-19T08:05:33.104Z,97179.97
2022-10-19T08:07:59.571Z,97186.69
2022-10-19T08:10:26.089Z,97187.03
2022-10-19T08:12:52.635Z,97180.47
2022-10-19T08:15:19.167Z,97183.47
2022-10-19T08:17:45.610Z,97183.00
2022-10-19T08:20:12.065Z,97179.91
2022-10-19T08:22:38.503Z,97180.00
2022-10-19T08:25:05.479Z,97180.16
2022-10-19T08:27:31.983Z,97179.38
2022-10-19T08:29:58.478Z,97184.34
2022-10-19T08:32:25.009Z,97194.28
2022-10-19T08:34:51.447Z,97192.75
2022-10-19T08:37:26.276Z,97191.63
2022-10-19T08:40:05.184Z,97185.06
2022-10-19T08:42:47.809Z,97181.00
2022-10-19T08:45:27.429Z,97184.91
2022-10-19T08:48:03.011Z,97182.06
2022-10-19T08:50:39.475Z,97175.50
2022-10-19T08:53:44.911Z,97178.50
2022-10-19T08:56:49.458Z,97178.72
2022-10-19T08:59:30.464Z,97170.94
2022-10-19T09:02:09.020Z,97179.75
2022-10-19T09:04:40.218Z,97176.69
2022-10-19T09:07:09.768Z,97178.97
2022-10-19T09:09:42.485Z,97183.00
2022-10-19T09:12:16.295Z,97182.47
2022-10-19T09:14:51.590Z,97188.69
2022-10-19T09:17:18.229Z,97182.91
2022-10-19T09:19:44.667Z,97192.09
2022-10-19T09:22:25.480Z,97190.53
2022-10-19T09:25:00.797Z,97187.53
2022-10-19T09:27:36.158Z,97183.94
2022-10-19T09:30:07.119Z,97186.88
2022-10-19T09:32:40.054Z,97187.53
2022-10-19T09:35:37.470Z,97185.84
2022-10-19T09:38:06.804Z,97180.63
2022-10-19T09:40:35.041Z,97183.91
2022-10-19T09:43:13.315Z,97193.97
2022-10-19T09:45:47.696Z,97190.22
2022-10-19T09:48:36.554Z,97199.78
2022-10-19T09:51:10.671Z,97193.50
2022-10-19T09:53:37.432Z,97194.25
2022-10-19T09:56:07.771Z,97198.25
2022-10-19T09:58:35.491Z,97198.38
2022-10-19T10:01:03.112Z,97198.72
2022-10-19T10:03:40.347Z,97186.81
2022-10-19T10:06:13.638Z,97192.16
2022-10-19T10:08:47.711Z,97184.94
2022-10-19T10:11:22.864Z,97197.09
2022-10-19T10:13:54.145Z,97188.06
2022-10-19T10:16:23.777Z,97199.69
2022-10-19T10:18:53.237Z,97199.97
2022-10-19T10:21:33.649Z,97205.50
2022-10-19T10:24:21.552Z,97194.38
2022-10-19T10:26:51.745Z,97202.22
2022-10-19T10:29:28.423Z,97193.41
2022-10-19T10:31:56.237Z,97189.28
2022-10-19T10:34:38.784Z,97187.78
2022-10-19T10:37:34.954Z,97177.44
2022-10-19T10:40:04.718Z,97179.84
2022-10-19T10:42:44.225Z,97181.34
2022-10-19T10:45:49.515Z,97191.22
2022-10-19T10:48:25.038Z,97178.69
2022-10-19T10:50:52.116Z,97171.91
2022-10-19T10:53:43.756Z,97181.88
2022-10-19T10:56:40.468Z,97177.69
2022-10-19T10:59:23.253Z,97169.63
2022-10-19T11:02:28.050Z,97170.00
2022-10-19T11:05:08.088Z,97169.19
2022-10-19T11:07:37.443Z,97168.94
2022-10-19T11:10:20.196Z,97160.84
2022-10-19T11:12:53.894Z,97151.22
2022-10-19T11:18:19.074Z,97154.09
2022-10-19T11:21:04.133Z,97148.72
2022-10-19T11:23:44.354Z,97142.50
2022-10-19T11:26:26.442Z,97135.75
2022-10-19T11:29:30.409Z,97128.34
2022-10-19T11:31:57.264Z,97131.44
2022-10-19T11:34:53.596Z,97131.53
2022-10-19T11:37:49.819Z,97125.22
2022-10-19T11:40:32.028Z,97118.09
2022-10-19T11:43:12.678Z,97116.13
2022-10-19T11:45:45.381Z,97103.78
2022-10-19T11:48:29.615Z,97110.78
2022-10-19T11:51:21.058Z,97102.84
2022-10-19T11:54:12.403Z,97106.09
2022-10-19T11:57:20.749Z,97099.91
2022-10-19T12:00:14.461Z,97100.50
2022-10-19T12:06:34.345Z,97086.19
2022-10-19T12:09:31.916Z,97083.28
2022-10-19T12:12:27.781Z,97069.38
2022-10-19T12:15:14.269Z,97072.84
2022-10-19T12:17:44.854Z,97074.56
2022-10-19T12:20:29.104Z,97071.22
2022-10-19T12:22:58.880Z,97073.09
2022-10-19T12:25:26.686Z,97074.59
2022-10-19T12:27:54.181Z,97065.94
2022-10-19T12:30:22.752Z,97062.22
2022-10-19T12:32:54.429Z,97057.09
2022-10-19T12:35:29.616Z,97055.31
2022-10-19T12:38:24.846Z,97057.38
2022-10-19T12:40:54.592Z,97048.22
2022-10-19T12:43:45.177Z,97050.50
2022-10-19T12:46:26.298Z,97049.66
2022-10-19T12:49:31.428Z,97036.75
2022-10-19T12:52:00.108Z,97039.75
2022-10-19T12:54:32.964Z,97042.41
2022-10-19T12:57:01.953Z,97040.22
2022-10-19T12:59:34.989Z,97040.63
2022-10-19T13:02:05.192Z,97040.22
2022-10-19T13:04:37.913Z,97031.75
2022-10-19T13:07:10.980Z,97029.53
2022-10-19T13:09:42.817Z,97032.22
2022-10-19T13:12:19.560Z,97028.06
2022-10-19T13:14:59.593Z,97029.25
2022-10-19T13:17:38.074Z,97027.63
2022-10-19T13:20:13.956Z,97020.72
2022-10-19T13:22:52.128Z,97023.81
2022-10-19T13:25:37.779Z,97011.59
2022-10-19T13:28:07.414Z,97015.44
2022-10-19T13:30:40.773Z,97016.56
2022-10-19T13:33:25.659Z,97014.69
2022-10-19T13:36:02.482Z,97010.13
2022-10-19T13:38:29.204Z,97017.72
2022-10-19T13:41:01.009Z,97007.41
2022-10-19T13:43:32.064Z,97015.75
2022-10-19T13:46:12.582Z,97006.63
2022-10-19T13:48:48.815Z,96998.63
2022-10-19T13:51:28.771Z,96997.53
2022-10-19T13:54:24.179Z,96997.53
2022-10-19T13:57:29.004Z,96995.97
2022-10-19T14:00:14.270Z,96992.88
2022-10-19T14:02:50.971Z,96995.22
2022-10-19T14:06:07.854Z,96999.75
2022-10-19T14:09:04.890Z,96988.66
2022-10-19T14:11:36.405Z,96994.41
2022-10-19T14:14:12.876Z,96996.28
2022-10-19T14:17:03.789Z,96997.00
2022-10-19T14:19:43.543Z,96984.78
2022-10-19T14:22:36.266Z,96983.63
2022-10-19T14:25:19.588Z,96980.56
2022-10-19T14:27:47.420Z,96972.94
2022-10-19T14:30:37.233Z,96980.94
2022-10-19T14:33:10.347Z,96973.16
2022-10-19T14:35:39.645Z,96967.78
2022-10-19T14:38:08.647Z,96963.91
2022-10-19T14:40:40.173Z,96964.59
2022-10-19T14:43:25.415Z,96960.03
2022-10-19T14:46:07.141Z,96959.94
2022-10-19T14:48:39.827Z,96958.38
2022-10-19T14:51:18.507Z,96956.81
2022-10-19T14:53:47.943Z,96953.75
2022-10-19T14:56:18.977Z,96963.22
2022-10-19T14:58:52.695Z,96969.00
2022-10-19T15:01:20.325Z,96953.72
2022-10-19T15:03:49.049Z,96947.53
2022-10-19T15:06:22.146Z,96947.19
2022-10-19T15:08:55.470Z,96947.09
2022-10-19T15:11:31.029Z,96953.50
2022-10-19T15:14:02.639Z,96957.31
2022-10-19T15:16:42.580Z,96955.38
2022-10-19T15:19:23.310Z,96951.50
2022-10-19T15:22:17.167Z,96949.16
2022-10-19T15:25:00.419Z,96941.81
2022-10-19T15:27:47.196Z,96946.03
2022-10-19T15:30:21.160Z,96939.06
2022-10-19T15:32:51.195Z,96942.44
2022-10-19T15:35:29.202Z,96936.75
2022-10-19T15:38:23.316Z,96941.19
2022-10-19T15:40:58.524Z,96938.91
2022-10-19T15:43:30.766Z,96936.88
2022-10-19T15:46:06.262Z,96931.88
2022-10-19T15:48:41.822Z,96939.75
2022-10-19T15:51:28.622Z,96937.41
2022-10-19T15:54:00.459Z,96938.03
2022-10-19T15:56:28.360Z,96936.44
2022-10-19T15:58:57.317Z,96933.38
2022-10-19T16:01:26.828Z,96928.28
2022-10-19T16:03:54.193Z,96920.41
2022-10-19T16:06:23.387Z,96928.63
2022-10-19T16:08:54.207Z,96928.44
2022-10-19T16:11:22.988Z,96933.53
2022-10-19T16:13:49.970Z,96925.75
2022-10-19T16:16:26.250Z,96922.09
2022-10-19T16:18:53.899Z,96924.13
2022-10-19T16:21:23.725Z,96928.53
2022-10-19T16:23:50.283Z,96926.38
2022-10-19T16:26:17.575Z,96917.81
2022-10-19T16:28:44.730Z,96923.97
2022-10-19T16:31:11.486Z,96926.09
2022-10-19T16:33:38.004Z,96922.44
2022-10-19T16:36:07.339Z,96918.13
2022-10-19T16:38:34.885Z,96925.16
2022-10-19T16:41:08.566Z,96923.88
2022-10-19T16:43:35.767Z,96908.38
2022-10-19T16:46:03.279Z,96927.69
2022-10-19T16:48:30.129Z,96926.34
2022-10-19T16:51:05.794Z,96937.63
2022-10-19T16:53:32.924Z,96928.03
2022-10-19T16:56:12.370Z,96928.03
2022-10-19T16:58:39.992Z,96924.88
2022-10-19T17:01:13.034Z,96926.53
2022-10-19T17:03:39.688Z,96930.81
2022-10-19T17:06:07.709Z,96938.25
2022-10-19T17:08:44.239Z,96931.66
2022-10-19T17:11:28.186Z,96927.81
2022-10-19T17:13:57.645Z,96916.63
2022-10-19T17:16:25.190Z,96919.09
2022-10-19T17:18:54.972Z,96926.69
2022-10-19T17:21:24.023Z,96920.78
2022-10-19T17:23:55.755Z,96929.66
2022-10-19T17:26:27.627Z,96933.88
2022-10-19T17:28:55.151Z,96930.69
2022-10-19T17:31:22.203Z,96922.94
2022-10-19T17:33:51.723Z,96933.16
2022-10-19T17:36:23.185Z,96934.16
2022-10-19T17:38:49.662Z,96926.06
2022-10-19T17:41:18.146Z,96937.94
2022-10-19T17:43:46.515Z,96928.06
2022-10-19T17:46:16.315Z,96925.22
2022-10-19T17:48:44.481Z,96936.91
2022-10-19T17:51:16.241Z,96931.66
2022-10-19T17:53:44.964Z,96932.19
2022-10-19T17:56:13.659Z,96927.13
2022-10-19T17:58:40.910Z,96936.78
2022-10-19T18:01:09.192Z,96932.63
2022-10-19T18:03:37.944Z,96929.53
2022-10-19T18:06:32.081Z,96933.38
2022-10-19T18:09:00.513Z,96934.84
2022-10-19T18:11:30.400Z,96932.94
2022-10-19T18:14:01.079Z,96927.84
2022-10-19T18:16:47.071Z,96920.13
2022-10-19T18:19:15.608Z,96919.16
2022-10-19T18:21:43.648Z,96922.50
2022-10-19T18:24:20.161Z,96919.06
2022-10-19T18:26:48.722Z,96922.28
2022-10-19T18:29:19.622Z,96914.47
2022-10-19T18:31:51.435Z,96916.69
2022-10-19T18:37:39.756Z,96916.19
2022-10-19T18:40:06.750Z,96911.44
2022-10-19T18:42:33.549Z,96913.09
2022-10-19T18:45:00.192Z,96908.38
2022-10-19T18:47:26.625Z,96906.19
2022-10-19T18:49:54.593Z,96901.91
2022-10-19T18:52:21.032Z,96897.97
2022-10-19T18:54:47.615Z,96893.44
2022-10-19T18:57:14.072Z,96902.31
2022-10-19T18:59:40.539Z,96888.34
2022-10-19T19:02:13.592Z,96900.34
2022-10-19T19:04:48.909Z,96901.13
2022-10-19T19:07:15.372Z,96897.97
2022-10-19T19:09:42.699Z,96889.94
2022-10-19T19:12:09.584Z,96899.06
2022-10-19T19:14:38.073Z,96895.00
2022-10-19T19:17:04.593Z,96893.13
2022-10-19T19:19:31.082Z,96891.56
2022-10-19T19:21:58.153Z,96897.41
2022-10-19T19:24:28.223Z,96904.03
2022-10-19T19:26:55.063Z,96904.25
2022-10-19T19:29:22.094Z,96896.84
2022-10-19T19:31:49.001Z,96899.59
2022-10-19T19:34:15.582Z,96903.34
2022-10-19T19:36:47.201Z,96900.16
2022-10-19T19:39:16.225Z,96907.31
2022-10-19T19:41:42.759Z,96894.63
2022-10-19T19:44:09.330Z,96901.03
2022-10-19T19:46:36.117Z,96896.38
2022-10-19T19:49:04.276Z,96901.13
2022-10-19T19:51:32.218Z,96895.88
2022-10-19T19:53:58.886Z,96898.03
2022-10-19T19:56:25.699Z,96902.13
2022-10-19T19:59:00.446Z,96892.34
2022-10-19T20:01:27.078Z,96892.47
2022-10-19T20:03:53.652Z,96888.16
2022-10-19T20:06:23.596Z,96898.81
2022-10-19T20:08:52.486Z,96900.72
2022-10-19T20:11:19.237Z,96889.59
2022-10-19T20:13:45.902Z,96884.97
2022-10-19T20:16:15.657Z,96893.66
2022-10-19T20:18:45.281Z,96895.53
2022-10-19T20:21:12.662Z,96871.66
2022-10-19T20:23:39.212Z,96890.81
2022-10-19T20:26:05.901Z,96900.47
2022-10-19T20:28:33.116Z,96900.38
2022-10-19T20:31:05.774Z,96892.47
2022-10-19T20:33:34.597Z,96892.34
2022-10-19T20:36:11.817Z,96899.38
2022-10-19T20:38:39.313Z,96890.25
2022-10-19T20:41:08.419Z,96894.13
2022-10-19T20:43:37.039Z,96901.59
2022-10-19T20:46:11.031Z,96899.84
2022-10-19T20:48:37.818Z,96903.56
2022-10-19T20:51:09.456Z,96906.75
2022-10-19T20:53:35.970Z,96901.03
2022-10-19T20:56:05.314Z,96895.75
2022-10-19T20:58:31.889Z,96896.59
2022-10-19T21:01:15.003Z,96898.47
2022-10-19T21:03:50.771Z,96889.88
2022-10-19T21:06:17.306Z,96888.31
2022-10-19T21:08:43.818Z,96883.59
2022-10-19T21:11:19.030Z,96875.97
2022-10-19T21:13:46.333Z,96884.44
2022-10-19T21:16:16.870Z,96891.03
2022-10-19T21:18:44.415Z,96878.44
2022-10-19T21:21:23.987Z,96867.69
2022-10-19T21:23:55.466Z,96875.44
2022-10-19T21:26:25.327Z,96876.66
2022-10-19T21:28:55.171Z,96877.44
2022-10-19T21:31:24.078Z,96874.59
2022-10-19T21:33:51.693Z,96877.16
2022-10-19T21:36:19.537Z,96879.34
2022-10-19T21:38:46.011Z,96873.03
2022-10-19T21:41:14.747Z,96881.56
2022-10-19T21:43:41.664Z,96871.75
2022-10-19T21:46:11.979Z,96870.56
2022-10-19T21:48:38.844Z,96876.84
2022-10-19T21:51:35.986Z,96868.16
2022-10-19T21:54:05.032Z,96856.41
2022-10-19T21:56:32.260Z,96863.19
2022-10-19T21:58:58.808Z,96857.47
2022-10-19T22:01:27.895Z,96868.94
2022-10-19T22:03:59.225Z,96862.31
2022-10-19T22:06:27.692Z,96856.84
2022-10-19T22:08:55.393Z,96864.88
2022-10-19T22:11:22.384Z,96862.78
2022-10-19T22:13:48.908Z,96859.72
2022-10-19T22:16:18.925Z,96868.53
2022-10-19T22:18:46.506Z,96867.75
2022-10-19T22:21:16.486Z,96862.41
2022-10-19T22:23:43.153Z,96867.22
2022-10-19T22:26:13.897Z,96861.84
2022-10-19T22:28:40.589Z,96867.56
2022-10-19T22:31:07.207Z,96875.94
2022-10-19T22:33:35.083Z,96871.19
2022-10-19T22:36:04.145Z,96866.56
2022-10-19T22:38:30.965Z,96867.03
2022-10-19T22:40:57.391Z,96859.00
2022-10-19T22:43:23.872Z,96857.34
2022-10-19T22:45:50.781Z,96856.38
2022-10-19T22:48:18.152Z,96860.22
2022-10-19T22:50:45.385Z,96860.13
2022-10-19T22:53:12.339Z,96854.50
2022-10-19T22:55:39.512Z,96864.94
2022-10-19T22:58:07.575Z,96860.00
2022-10-19T23:00:34.027Z,96859.00
2022-10-19T23:03:00.503Z,96859.34
2022-10-19T23:05:26.968Z,96863.75
2022-10-19T23:07:53.416Z,96853.88
2022-10-19T23:10:19.897Z,96858.16
2022-10-19T23:12:54.014Z,96860.22
2022-10-19T23:15:21.617Z,96849.25
2022-10-19T23:17:48.318Z,96854.50
2022-10-19T23:20:14.849Z,96857.25
2022-10-19T23:22:41.313Z,96848.56
2022-10-19T23:25:08.510Z,96855.94
2022-10-19T23:27:35.291Z,96844.84
2022-10-19T23:30:02.667Z,96848.25
2022-10-19T23:32:29.214Z,96841.78
2022-10-19T23:34:55.715Z,96823.81
2022-10-19T23:37:22.199Z,96830.81
2022-10-19T23:39:48.695Z,96830.19
2022-10-19T23:42:15.113Z,96830.19
2022-10-19T23:44:41.649Z,96829.28
2022-10-19T23:47:08.098Z,96830.06
2022-10-19T23:49:34.670Z,96822.25
2022-10-19T23:52:01.116Z,96825.00
2022-10-19T23:54:27.559Z,96836.75
2022-10-19T23:56:54.021Z,96827.19
2022-10-19T23:59:20.523Z,96826.41
